Time;durP1;ratioP1;P1;durP2;ratioP2;P2;SDS_P1;SDS_P2;PMS_P1;PMS_P2;Temp;Humidity;BMP_temperature;BMP_pressure;BME280_temperature;BME280_humidity;BME280_pressure;Samples;Min_cycle;Max_cycle;Signal;HPM_P1;HPM_P2
2021/10/24 06:02:05;;;;;;;7.47;1.90;;;13.70;99.90;;;;;;6207837;22;20012;-78
2021/10/24 06:04:32;;;;;;;8.27;1.60;;;13.70;99.90;;;;;;6243024;23;20504;-78
2021/10/24 06:06:59;;;;;;;9.75;2.33;;;13.70;99.90;;;;;;6242893;23;20016;-81
2021/10/24 06:09:39;;;;;;;9.70;1.98;;;13.70;99.90;;;;;;6240196;23;20020;-79
2021/10/24 06:15:53;;;;;;;7.28;1.42;;;13.80;99.90;;;;;;6101878;23;20540;-80
2021/10/24 06:18:37;;;;;;;9.38;2.35;;;13.80;99.90;;;;;;6086853;23;20022;-78
2021/10/24 06:21:18;;;;;;;8.65;2.15;;;13.80;99.90;;;;;;6086028;23;20029;-78
2021/10/24 06:23:59;;;;;;;10.15;2.00;;;13.80;99.90;;;;;;6089881;23;20365;-78
2021/10/24 06:26:29;;;;;;;11.05;1.90;;;13.90;99.90;;;;;;6090655;23;20416;-78
2021/10/24 06:29:11;;;;;;;9.38;1.85;;;13.90;99.90;;;;;;6088782;23;20023;-79
2021/10/24 06:31:51;;;;;;;11.30;2.15;;;13.90;99.90;;;;;;6085303;23;20030;-78
2021/10/24 06:34:32;;;;;;;9.60;2.20;;;13.90;99.90;;;;;;6103073;23;20070;-78
2021/10/24 06:37:01;;;;;;;9.25;2.45;;;13.90;99.90;;;;;;6090941;23;20071;-78
2021/10/24 06:39:32;;;;;;;11.75;2.45;;;13.90;99.90;;;;;;6090234;23;20414;-79
2021/10/24 06:42:07;;;;;;;8.73;2.15;;;13.90;99.90;;;;;;6088557;23;20029;-78
2021/10/24 06:44:48;;;;;;;9.90;2.17;;;13.90;99.90;;;;;;6087679;23;20014;-79
2021/10/24 06:47:32;;;;;;;9.85;2.20;;;13.90;99.90;;;;;;6088852;23;20461;-78
2021/10/24 06:50:11;;;;;;;12.07;2.45;;;13.80;99.90;;;;;;6120924;23;20086;-79
2021/10/24 06:52:52;;;;;;;11.15;2.35;;;13.80;99.90;;;;;;6219066;23;20463;-78
2021/10/24 06:55:23;;;;;;;11.27;2.30;;;13.80;99.90;;;;;;6241510;23;20016;-78
2021/10/24 06:58:03;;;;;;;10.27;2.20;;;13.80;99.90;;;;;;6239008;23;20075;-78
2021/10/24 07:00:46;;;;;;;9.45;2.30;;;13.80;99.90;;;;;;6217441;23;20070;-78
2021/10/24 07:03:13;;;;;;;;;;;13.80;99.90;;;;;;6241942;23;20462;-79
2021/10/24 07:05:42;;;;;;;9.38;2.28;;;13.70;99.90;;;;;;6242376;23;19919;-78
2021/10/24 07:08:09;;;;;;;8.43;2.33;;;13.80;99.90;;;;;;6241793;23;20483;-78
2021/10/24 07:10:35;;;;;;;8.65;2.30;;;13.80;99.90;;;;;;6243054;23;20102;-78
2021/10/24 07:13:02;;;;;;;10.18;2.70;;;13.80;99.90;;;;;;6242424;23;20043;-78
2021/10/24 07:15:29;;;;;;;10.02;2.58;;;13.80;99.90;;;;;;6215542;23;20020;-78
2021/10/24 07:17:56;;;;;;;10.07;2.92;;;13.90;99.90;;;;;;6242301;23;20016;-79
2021/10/24 07:20:23;;;;;;;12.02;3.00;;;13.90;99.90;;;;;;6242268;23;20085;-78
2021/10/24 07:22:50;;;;;;;16.25;3.13;;;13.90;99.90;;;;;;6243165;23;20024;-78
2021/10/24 07:25:18;;;;;;;11.85;2.92;;;13.90;99.90;;;;;;6243192;23;20027;-78
2021/10/24 07:27:45;;;;;;;10.03;2.63;;;14.00;99.90;;;;;;6244435;23;20027;-78
2021/10/24 07:30:12;;;;;;;14.27;3.15;;;14.00;99.90;;;;;;6243477;23;20095;-78
2021/10/24 07:32:40;;;;;;;20.67;3.03;;;14.00;99.90;;;;;;6242810;23;20103;-78
2021/10/24 07:35:08;;;;;;;14.70;2.85;;;14.10;99.90;;;;;;6242502;23;20039;-78
2021/10/24 07:37:35;;;;;;;11.50;2.65;;;14.10;99.90;;;;;;6242918;23;20016;-78
2021/10/24 07:40:02;;;;;;;17.40;2.80;;;14.20;99.90;;;;;;6242637;23;20028;-79
2021/10/24 07:42:30;;;;;;;12.82;2.70;;;14.20;99.90;;;;;;6242205;23;20020;-78
2021/10/24 07:44:57;;;;;;;13.13;2.88;;;14.20;99.90;;;;;;6242511;23;20016;-79
2021/10/24 07:47:25;;;;;;;14.07;3.13;;;14.30;99.90;;;;;;6241579;23;20032;-78
2021/10/24 07:49:52;;;;;;;16.50;3.40;;;14.30;99.90;;;;;;6242947;23;20031;-81
2021/10/24 07:52:19;;;;;;;16.60;2.97;;;14.30;99.90;;;;;;6241754;23;20024;-79
2021/10/24 07:54:46;;;;;;;13.02;2.85;;;14.40;99.90;;;;;;6242277;23;20028;-78
2021/10/24 07:57:13;;;;;;;12.65;2.95;;;14.40;99.90;;;;;;6241586;23;20020;-79
2021/10/24 07:59:41;;;;;;;9.90;2.90;;;14.40;99.90;;;;;;6242398;23;20354;-78
2021/10/24 08:02:09;;;;;;;14.23;2.47;;;14.40;99.90;;;;;;6241550;23;20105;-80
2021/10/24 08:04:37;;;;;;;15.40;2.93;;;14.50;99.90;;;;;;6241976;23;20012;-80
2021/10/24 08:07:05;;;;;;;11.90;2.92;;;14.50;99.90;;;;;;6242001;23;20297;-81
2021/10/24 08:09:32;;;;;;;16.08;3.63;;;14.50;99.90;;;;;;6241790;23;20016;-80
2021/10/24 08:11:59;;;;;;;20.25;3.00;;;14.50;99.90;;;;;;6242163;23;20016;-77
2021/10/24 08:14:26;;;;;;;19.55;2.90;;;14.50;99.90;;;;;;6242056;23;20020;-79
2021/10/24 08:16:53;;;;;;;15.30;3.03;;;14.50;99.90;;;;;;6242114;23;20016;-80
2021/10/24 08:19:20;;;;;;;16.60;2.95;;;14.60;99.90;;;;;;6215081;23;20028;-79
2021/10/24 08:21:49;;;;;;;14.30;2.60;;;14.50;99.90;;;;;;6242368;23;20023;-79
2021/10/24 08:24:16;;;;;;;14.60;2.97;;;14.50;99.90;;;;;;6241200;23;20051;-79
2021/10/24 08:26:43;;;;;;;12.18;2.78;;;14.60;99.90;;;;;;6242125;23;20024;-80
2021/10/24 08:29:10;;;;;;;13.65;2.78;;;14.50;99.90;;;;;;6241367;23;20027;-80
2021/10/24 08:31:38;;;;;;;12.40;2.90;;;14.60;99.90;;;;;;6242396;23;20470;-80
2021/10/24 08:34:05;;;;;;;11.18;3.17;;;14.60;99.90;;;;;;6241593;23;20024;-79
2021/10/24 08:36:32;;;;;;;11.63;3.10;;;14.60;99.90;;;;;;6240562;23;20024;-79
2021/10/24 08:38:59;;;;;;;12.60;3.03;;;14.60;99.90;;;;;;6241568;23;20099;-79
2021/10/24 08:41:28;;;;;;;13.65;3.13;;;14.60;99.90;;;;;;6241288;23;20070;-80
2021/10/24 08:44:04;;;;;;;10.52;3.15;;;14.60;99.90;;;;;;6241832;23;20020;-79
2021/10/24 08:46:31;;;;;;;10.52;3.50;;;14.60;99.90;;;;;;6241134;23;20020;-80
2021/10/24 08:48:59;;;;;;;13.15;3.00;;;14.60;99.90;;;;;;6215397;23;20020;-79
2021/10/24 08:51:29;;;;;;;18.50;3.58;;;14.60;99.90;;;;;;6241161;23;20024;-79
2021/10/24 08:53:57;;;;;;;11.05;3.05;;;14.60;99.90;;;;;;6241636;23;20474;-79
2021/10/24 08:56:28;;;;;;;12.60;3.37;;;14.60;99.90;;;;;;6241821;23;20028;-79
2021/10/24 08:58:56;;;;;;;14.43;4.00;;;14.50;99.90;;;;;;6241385;23;20074;-80
2021/10/24 09:01:23;;;;;;;9.07;3.40;;;14.60;99.90;;;;;;6240808;23;20024;-79
2021/10/24 09:04:14;;;;;;;12.27;3.40;;;14.60;99.90;;;;;;6241484;23;20557;-79
2021/10/24 09:06:48;;;;;;;13.13;4.15;;;14.60;99.90;;;;;;6241285;23;20489;-79
2021/10/24 09:09:35;;;;;;;9.82;2.78;;;14.60;99.90;;;;;;6240804;23;20079;-79
2021/10/24 09:12:05;;;;;;;11.63;3.42;;;14.60;99.90;;;;;;6241710;23;20382;-79
2021/10/24 09:14:53;;;;;;;13.68;3.95;;;14.60;99.90;;;;;;6240866;23;20023;-79
2021/10/24 09:17:25;;;;;;;9.32;3.75;;;14.70;99.90;;;;;;6241266;23;20081;-79
2021/10/24 09:19:58;;;;;;;11.68;4.15;;;14.70;99.90;;;;;;6241629;23;20513;-80
2021/10/24 09:22:35;;;;;;;8.55;3.65;;;14.70;99.90;;;;;;6240878;23;20016;-79
2021/10/24 09:25:14;;;;;;;8.27;3.65;;;14.70;99.90;;;;;;6242184;23;20524;-79
2021/10/24 09:27:51;;;;;;;12.32;3.45;;;14.80;99.90;;;;;;6241081;23;20020;-78
2021/10/24 09:30:25;;;;;;;9.32;2.60;;;14.80;99.90;;;;;;6240987;23;20058;-80
2021/10/24 09:32:57;;;;;;;11.85;3.30;;;14.80;99.90;;;;;;6241320;23;20020;-80
2021/10/24 09:35:29;;;;;;;8.15;3.60;;;14.80;99.90;;;;;;6239479;23;20074;-80
2021/10/24 09:38:01;;;;;;;9.90;2.65;;;14.80;99.90;;;;;;6241499;23;20397;-80
2021/10/24 09:40:49;;;;;;;7.10;3.47;;;14.80;99.90;;;;;;6240843;23;20051;-79
2021/10/24 09:43:20;;;;;;;6.30;2.53;;;14.80;99.90;;;;;;6240678;23;20482;-79
2021/10/24 09:46:09;;;;;;;10.85;2.70;;;14.80;99.90;;;;;;6241095;23;20070;-79
2021/10/24 09:48:36;;;;;;;;;;;14.90;99.90;;;;;;6241437;23;20020;-79
2021/10/24 09:51:11;;;;;;;8.93;2.78;;;14.80;99.90;;;;;;6241424;23;20353;-79
2021/10/24 09:53:43;;;;;;;7.97;2.50;;;14.80;99.90;;;;;;6241411;23;20012;-79
2021/10/24 09:56:15;;;;;;;11.18;3.15;;;14.80;99.90;;;;;;6240635;23;20024;-79
2021/10/24 09:58:44;;;;;;;10.48;2.75;;;14.80;99.90;;;;;;6241430;23;20020;-79
2021/10/24 10:01:15;;;;;;;15.52;3.20;;;14.80;99.90;;;;;;6240222;23;20032;-80
2021/10/24 10:03:43;;;;;;;7.75;2.55;;;14.80;99.90;;;;;;6241070;23;20020;-79
2021/10/24 10:06:14;;;;;;;9.38;2.60;;;14.80;99.90;;;;;;6240746;23;20100;-78
2021/10/24 10:08:44;;;;;;;12.88;3.15;;;14.80;99.90;;;;;;6241462;23;20012;-79
2021/10/24 10:11:30;;;;;;;9.48;2.83;;;14.80;99.90;;;;;;6240301;23;20032;-79
2021/10/24 10:14:15;;;;;;;7.90;2.22;;;14.80;99.90;;;;;;6241395;23;20439;-79
2021/10/24 10:16:50;;;;;;;11.32;2.90;;;14.80;99.90;;;;;;6241034;23;20085;-79
2021/10/24 10:19:29;;;;;;;9.82;2.95;;;14.80;99.90;;;;;;6240399;23;20070;-79
2021/10/24 10:22:17;;;;;;;16.42;3.42;;;14.80;99.90;;;;;;6241384;23;20544;-79
2021/10/24 10:24:44;;;;;;;9.73;2.45;;;14.90;99.90;;;;;;6240890;23;20016;-80
2021/10/24 10:27:36;;;;;;;10.43;2.50;;;14.90;99.90;;;;;;6240463;23;20499;-80
2021/10/24 10:30:08;;;;;;;6.28;2.50;;;14.90;99.90;;;;;;6241214;23;20024;-79
2021/10/24 10:32:37;;;;;;;7.18;2.08;;;14.90;99.90;;;;;;6214436;23;20012;-79
2021/10/24 10:35:22;;;;;;;6.00;2.45;;;14.90;99.90;;;;;;6240709;23;20024;-79
2021/10/24 10:37:55;;;;;;;5.88;1.90;;;14.90;99.90;;;;;;6241178;23;20495;-79
2021/10/24 10:40:23;;;;;;;5.07;2.08;;;14.90;99.90;;;;;;6240495;23;20024;-79
2021/10/24 10:42:53;;;;;;;6.22;2.20;;;15.00;99.90;;;;;;6241848;23;20020;-79
2021/10/24 10:45:27;;;;;;;4.13;1.42;;;15.00;99.90;;;;;;6240413;23;20020;-79
2021/10/24 10:48:03;;;;;;;5.38;1.58;;;15.00;99.90;;;;;;6241476;23;20020;-79
2021/10/24 10:50:30;;;;;;;4.93;2.00;;;15.10;99.90;;;;;;6241009;23;20047;-79
2021/10/24 10:52:59;;;;;;;5.50;1.67;;;15.10;99.90;;;;;;6241257;23;20020;-79
2021/10/24 10:55:29;;;;;;;;;;;15.00;99.90;;;;;;6240545;23;20020;-79
2021/10/24 10:58:36;;;;;;;5.18;1.60;;;15.00;99.90;;;;;;6243031;23;19916;-80
2021/10/24 11:01:06;;;;;;;6.07;1.67;;;15.10;99.90;;;;;;6242358;23;20011;-79
2021/10/24 11:03:44;;;;;;;4.85;1.33;;;15.10;99.90;;;;;;6242283;23;20083;-79
2021/10/24 11:06:31;;;;;;;2.47;0.90;;;15.10;99.90;;;;;;6242310;23;20475;-80
2021/10/24 11:09:06;;;;;;;3.10;1.13;;;15.10;99.90;;;;;;6242667;23;20251;-79
2021/10/24 11:14:11;;;;;;;1.58;0.70;;;15.20;99.90;;;;;;6242060;23;20074;-80
2021/10/24 11:16:46;;;;;;;3.30;1.10;;;15.10;99.90;;;;;;6243519;23;20027;-79
2021/10/24 11:19:39;;;;;;;2.10;1.10;;;15.10;99.90;;;;;;6241307;23;20082;-79
2021/10/24 11:22:16;;;;;;;3.33;1.13;;;15.20;99.90;;;;;;6242310;23;20027;-79
2021/10/24 11:24:52;;;;;;;1.52;1.00;;;15.20;99.90;;;;;;6242677;23;20024;-80
2021/10/24 11:27:20;;;;;;;2.15;1.10;;;15.20;99.90;;;;;;6242617;23;20020;-79
2021/10/24 11:29:51;;;;;;;1.77;1.10;;;15.20;99.90;;;;;;6242643;23;20020;-79
2021/10/24 11:32:33;;;;;;;3.03;1.00;;;15.20;99.90;;;;;;6241772;23;20024;-80
2021/10/24 11:35:02;;;;;;;3.05;0.90;;;15.20;99.90;;;;;;6242649;23;20020;-80
2021/10/24 11:37:37;;;;;;;4.03;1.00;;;15.20;99.90;;;;;;6241905;23;20045;-81
2021/10/24 11:40:08;;;;;;;2.47;0.80;;;15.20;99.90;;;;;;6242564;23;20020;-80
2021/10/24 11:42:36;;;;;;;2.28;0.82;;;15.20;99.90;;;;;;6243040;23;20062;-80
2021/10/24 11:45:18;;;;;;;1.75;1.10;;;15.20;99.90;;;;;;6242422;23;20020;-80
2021/10/24 11:48:12;;;;;;;1.25;1.00;;;15.20;99.90;;;;;;6242059;23;20062;-80
2021/10/24 11:50:45;;;;;;;0.80;0.70;;;15.20;99.90;;;;;;6242272;23;20078;-80
2021/10/24 11:53:32;;;;;;;1.17;1.02;;;15.20;99.90;;;;;;6241514;23;20331;-80
2021/10/24 11:56:36;;;;;;;2.15;0.85;;;15.20;99.90;;;;;;6242566;23;20027;-79
2021/10/24 11:59:15;;;;;;;1.30;1.20;;;15.20;99.90;;;;;;6242093;23;20012;-79
2021/10/24 12:01:42;;;;;;;1.20;1.10;;;15.30;99.90;;;;;;6241619;23;20020;-80
2021/10/24 12:04:13;;;;;;;1.23;0.60;;;15.30;99.90;;;;;;6242266;23;20131;-79
2021/10/24 12:06:58;;;;;;;1.33;0.73;;;15.30;99.90;;;;;;6242326;23;20023;-79
2021/10/24 12:09:35;;;;;;;0.90;0.50;;;15.30;99.90;;;;;;6241129;23;20012;-79
2021/10/24 12:12:15;;;;;;;0.70;0.50;;;15.40;99.90;;;;;;6242415;23;20019;-80
2021/10/24 12:14:52;;;;;;;0.68;0.60;;;15.40;99.90;;;;;;6242063;23;20066;-80
2021/10/24 12:17:25;;;;;;;2.42;1.23;;;15.40;99.90;;;;;;6241537;23;20370;-80
2021/10/24 12:20:21;;;;;;;1.65;1.30;;;15.40;99.90;;;;;;6241459;23;20092;-79
2021/10/24 12:22:57;;;;;;;2.50;1.20;;;15.50;99.90;;;;;;6242313;23;20020;-80
2021/10/24 12:25:43;;;;;;;4.07;1.80;;;15.50;99.90;;;;;;6241328;23;20024;-81
2021/10/24 12:28:16;;;;;;;2.50;0.95;;;15.60;99.90;;;;;;6242327;23;20020;-79
2021/10/24 12:30:53;;;;;;;;;;;15.60;99.90;;;;;;6242294;23;20026;-79
2021/10/24 12:33:25;;;;;;;5.03;1.60;;;15.60;99.90;;;;;;6241719;23;19969;-80
2021/10/24 12:35:58;;;;;;;3.47;1.70;;;15.60;99.90;;;;;;6241882;23;20020;-79
2021/10/24 12:38:51;;;;;;;8.55;2.42;;;15.70;99.90;;;;;;6241717;23;20481;-79
2021/10/24 12:41:39;;;;;;;3.40;2.17;;;15.70;99.90;;;;;;6241458;23;20024;-80
2021/10/24 12:44:11;;;;;;;4.07;1.58;;;15.80;99.90;;;;;;6241574;23;20473;-79
2021/10/24 12:46:39;;;;;;;6.75;1.90;;;15.80;99.90;;;;;;6242185;23;20023;-79
2021/10/24 12:49:18;;;;;;;6.35;2.35;;;15.90;99.90;;;;;;6241508;23;20086;-78
2021/10/24 12:51:47;;;;;;;10.60;2.42;;;15.90;99.90;;;;;;6242041;23;20020;-80
2021/10/24 12:54:31;;;;;;;6.72;2.75;;;15.90;99.90;;;;;;6241206;23;20090;-79
2021/10/24 12:56:59;;;;;;;10.65;4.28;;;16.00;99.90;;;;;;6241848;23;20091;-79
2021/10/24 12:59:25;;;;;;;11.32;3.95;;;16.10;99.90;;;;;;6241290;23;20020;-79
2021/10/24 13:01:53;;;;;;;6.65;1.40;;;16.10;99.90;;;;;;6241191;23;20062;-77
2021/10/24 13:04:20;;;;;;;7.88;2.17;;;16.20;99.90;;;;;;6241161;23;20059;-77
2021/10/24 13:06:47;;;;;;;7.40;1.25;;;16.20;99.90;;;;;;6241536;23;20393;-77
2021/10/24 13:09:15;;;;;;;6.90;1.38;;;16.20;99.90;;;;;;6240728;23;20024;-77
2021/10/24 13:11:42;;;;;;;8.05;1.40;;;16.20;99.90;;;;;;6242038;23;20020;-76
2021/10/24 13:14:09;;;;;;;6.40;1.77;;;16.30;99.90;;;;;;6240840;23;20043;-77
2021/10/24 13:16:36;;;;;;;7.95;1.58;;;16.30;99.90;;;;;;6241799;23;20016;-77
2021/10/24 13:19:03;;;;;;;13.38;2.40;;;16.30;99.90;;;;;;6241552;23;20020;-79
2021/10/24 13:24:09;;;;;;;11.23;2.20;;;16.40;99.90;;;;;;6241775;23;20018;-77
2021/10/24 13:26:41;;;;;;;10.60;1.70;;;16.40;99.90;;;;;;6241619;23;20019;-77
2021/10/24 13:29:09;;;;;;;8.35;1.83;;;16.40;99.90;;;;;;6240797;23;20405;-79
2021/10/24 13:31:37;;;;;;;9.48;1.98;;;16.50;99.90;;;;;;6241164;23;20020;-77
2021/10/24 13:34:05;;;;;;;12.52;2.05;;;16.50;99.90;;;;;;6240897;23;20020;-75
2021/10/24 13:36:35;;;;;;;9.70;1.85;;;16.60;99.90;;;;;;6242087;23;20023;-76
2021/10/24 13:39:03;;;;;;;10.15;2.10;;;16.60;99.90;;;;;;6241722;23;20086;-80
2021/10/24 13:41:30;;;;;;;6.85;1.42;;;16.50;99.90;;;;;;6240460;23;20082;-78
2021/10/24 13:43:57;;;;;;;12.38;2.03;;;16.50;99.90;;;;;;6241265;23;20070;-77
2021/10/24 13:46:24;;;;;;;9.82;1.75;;;16.60;99.90;;;;;;6240997;23;20032;-79
2021/10/24 13:48:51;;;;;;;9.02;2.10;;;16.60;99.90;;;;;;6241418;23;20023;-77
2021/10/24 13:51:17;;;;;;;14.43;2.75;;;16.60;99.90;;;;;;6240729;23;20366;-77
2021/10/24 13:53:45;;;;;;;9.63;1.77;;;16.60;99.90;;;;;;6241495;23;20021;-79
2021/10/24 13:56:11;;;;;;;8.13;2.15;;;16.60;99.90;;;;;;6214329;23;20498;-79
2021/10/24 13:58:38;;;;;;;15.25;2.58;;;16.70;99.90;;;;;;6241330;23;20043;-79
2021/10/24 14:01:05;;;;;;;10.77;1.75;;;16.60;99.90;;;;;;6240607;23;20070;-78
2021/10/24 14:03:33;;;;;;;10.38;1.95;;;16.70;99.90;;;;;;6241170;23;20028;-79
2021/10/24 14:06:00;;;;;;;10.53;2.10;;;16.70;99.90;;;;;;6241856;23;20066;-79
2021/10/24 14:08:27;;;;;;;10.60;2.38;;;16.70;99.90;;;;;;6213534;23;20024;-79
2021/10/24 14:10:54;;;;;;;10.00;2.08;;;16.80;99.90;;;;;;6241003;23;20466;-78
2021/10/24 14:13:21;;;;;;;12.35;2.70;;;16.80;99.90;;;;;;6240374;23;20069;-79
2021/10/24 14:15:48;;;;;;;9.50;2.60;;;16.80;99.90;;;;;;6241619;23;20027;-79
2021/10/24 14:18:15;;;;;;;13.25;2.00;;;16.80;99.90;;;;;;6240598;23;20032;-79
2021/10/24 14:20:42;;;;;;;11.07;1.80;;;16.80;99.90;;;;;;6241019;23;20024;-79
2021/10/24 14:23:09;;;;;;;14.82;1.90;;;16.90;99.90;;;;;;6241333;23;20028;-79
2021/10/24 14:25:36;;;;;;;10.13;1.95;;;16.90;99.90;;;;;;6240496;23;20024;-79
2021/10/24 14:28:03;;;;;;;8.95;1.60;;;16.80;99.90;;;;;;6241475;23;20409;-80
2021/10/24 14:30:30;;;;;;;7.03;1.40;;;16.80;99.90;;;;;;6241067;23;20019;-79
2021/10/24 14:32:57;;;;;;;11.93;1.90;;;16.80;99.90;;;;;;6243081;23;20455;-79
2021/10/24 14:35:24;;;;;;;8.25;1.77;;;16.70;99.90;;;;;;6242744;23;20021;-79
2021/10/24 14:37:51;;;;;;;12.93;2.65;;;16.70;99.90;;;;;;6243163;23;20544;-79
2021/10/24 14:40:18;;;;;;;12.40;1.92;;;16.70;99.90;;;;;;6242169;23;20028;-79
2021/10/24 14:42:45;;;;;;;12.38;1.70;;;16.70;99.90;;;;;;6243971;23;20020;-79
2021/10/24 14:45:12;;;;;;;12.02;2.17;;;16.70;99.90;;;;;;6242331;23;20020;-79
2021/10/24 14:47:39;;;;;;;14.38;2.05;;;16.80;99.90;;;;;;6216639;23;20016;-79
2021/10/24 14:50:07;;;;;;;10.98;2.05;;;16.80;99.90;;;;;;6242398;23;20543;-79
2021/10/24 14:52:33;;;;;;;14.05;2.97;;;16.80;99.90;;;;;;6243109;23;20078;-80
2021/10/24 14:55:01;;;;;;;15.32;2.47;;;16.80;99.90;;;;;;6242813;23;20631;-79
2021/10/24 14:57:28;;;;;;;14.98;2.80;;;16.80;99.90;;;;;;6242613;23;20020;-78
2021/10/24 14:59:54;;;;;;;17.52;2.75;;;16.80;99.90;;;;;;6242960;23;20012;-79
2021/10/24 15:02:21;;;;;;;12.55;2.15;;;16.80;99.90;;;;;;6241956;22;20421;-78
2021/10/24 15:04:49;;;;;;;11.73;2.35;;;16.70;99.90;;;;;;6242731;23;20017;-79
2021/10/24 15:07:16;;;;;;;22.13;2.60;;;16.70;99.90;;;;;;6215423;23;20016;-78
2021/10/24 15:09:42;;;;;;;16.73;2.90;;;16.70;99.90;;;;;;6242638;23;20058;-79
2021/10/24 15:12:29;;;;;;;15.43;2.15;;;16.70;99.90;;;;;;6243045;23;20087;-79
2021/10/24 15:14:56;;;;;;;17.75;2.80;;;16.70;99.90;;;;;;6242547;23;20085;-79
2021/10/24 15:17:29;;;;;;;16.10;2.78;;;16.60;99.90;;;;;;6241856;23;20016;-79
2021/10/24 15:22:28;;;;;;;16.60;3.83;;;16.70;99.90;;;;;;6242438;23;20086;-79
2021/10/24 15:24:55;;;;;;;19.10;3.90;;;16.70;99.90;;;;;;6242779;23;20046;-79
2021/10/24 15:27:23;;;;;;;21.38;5.45;;;16.70;99.90;;;;;;6242257;23;20020;-79
2021/10/24 15:29:53;;;;;;;15.40;2.67;;;16.70;99.90;;;;;;6242468;23;20537;-79
2021/10/24 15:32:21;;;;;;;16.80;3.05;;;16.60;99.90;;;;;;6242144;23;20111;-79
2021/10/24 15:34:48;;;;;;;19.58;2.35;;;16.70;99.90;;;;;;6242670;23;20078;-79
2021/10/24 15:37:15;;;;;;;20.35;5.50;;;16.60;99.90;;;;;;6241803;23;20078;-79
2021/10/24 15:39:42;;;;;;;23.85;5.68;;;16.60;99.90;;;;;;6243037;23;20308;-79
2021/10/24 15:42:09;;;;;;;24.70;4.82;;;16.60;99.90;;;;;;6241999;23;20020;-78
2021/10/24 15:44:38;;;;;;;16.05;3.03;;;16.60;99.90;;;;;;6241952;23;20097;-79
2021/10/24 15:47:06;;;;;;;21.27;3.85;;;16.70;99.90;;;;;;6241939;23;20023;-78
2021/10/24 15:49:34;;;;;;;14.45;3.17;;;16.70;99.90;;;;;;6242652;23;20517;-79
2021/10/24 15:52:01;;;;;;;17.67;2.70;;;16.80;99.90;;;;;;6242525;23;20544;-80
2021/10/24 15:54:28;;;;;;;23.40;4.10;;;16.80;99.90;;;;;;6241788;23;20095;-79
2021/10/24 15:56:55;;;;;;;14.93;3.42;;;16.70;99.90;;;;;;6242879;23;20381;-79
2021/10/24 15:59:21;;;;;;;20.73;3.22;;;16.70;99.90;;;;;;6241503;23;20027;-79
2021/10/24 16:01:49;;;;;;;18.65;2.70;;;16.70;99.90;;;;;;6240979;23;20020;-79
2021/10/24 16:04:16;;;;;;;20.35;3.40;;;16.60;99.90;;;;;;6239958;23;20035;-79
2021/10/24 16:06:43;;;;;;;21.17;3.20;;;16.70;99.90;;;;;;6241153;23;20059;-79
2021/10/24 16:09:11;;;;;;;13.93;2.58;;;16.60;99.90;;;;;;6239425;23;20544;-79
2021/10/24 16:11:37;;;;;;;17.10;3.03;;;16.60;99.90;;;;;;6241804;23;20024;-79
2021/10/24 16:14:04;;;;;;;15.10;3.28;;;16.60;99.90;;;;;;6240118;23;20059;-78
2021/10/24 16:16:32;;;;;;;19.92;3.50;;;16.60;99.90;;;;;;6240902;23;20474;-79
2021/10/24 16:18:59;;;;;;;26.15;3.20;;;16.50;99.90;;;;;;6240734;23;20479;-79
2021/10/24 16:21:26;;;;;;;21.40;2.45;;;16.40;99.90;;;;;;6240299;23;20024;-79
2021/10/24 16:23:52;;;;;;;20.52;4.05;;;16.40;99.90;;;;;;6240789;23;20023;-79
2021/10/24 16:26:19;;;;;;;14.82;3.28;;;16.40;99.90;;;;;;6240048;23;20548;-79
2021/10/24 16:28:46;;;;;;;21.48;4.35;;;16.30;99.90;;;;;;6240964;23;20070;-79
2021/10/24 16:31:13;;;;;;;20.67;4.10;;;16.30;99.90;;;;;;6239611;23;20028;-79
2021/10/24 16:33:41;;;;;;;19.67;3.78;;;16.20;99.90;;;;;;6240707;23;20070;-78
2021/10/24 16:36:08;;;;;;;17.60;4.57;;;16.20;99.90;;;;;;6239904;23;20032;-79
2021/10/24 16:38:38;;;;;;;24.95;3.92;;;16.20;99.90;;;;;;6239099;23;20022;-79
2021/10/24 16:41:06;;;;;;;17.85;3.60;;;16.20;99.90;;;;;;6240277;23;20090;-78
2021/10/24 16:43:33;;;;;;;19.05;3.95;;;16.10;99.90;;;;;;6240216;23;20027;-79
2021/10/24 16:46:00;;;;;;;18.83;3.17;;;16.10;99.90;;;;;;6240795;23;20024;-79
2021/10/24 16:48:28;;;;;;;21.90;3.60;;;16.10;99.90;;;;;;6240133;23;20469;-78
2021/10/24 16:50:56;;;;;;;21.60;3.95;;;16.00;99.90;;;;;;6240081;23;20016;-79
2021/10/24 16:53:23;;;;;;;17.58;3.72;;;16.00;99.90;;;;;;6239654;23;20020;-78
2021/10/24 16:55:50;;;;;;;21.98;3.58;;;15.90;99.90;;;;;;6240891;23;20032;-79
2021/10/24 16:58:17;;;;;;;23.52;3.45;;;15.90;99.90;;;;;;6239469;23;20024;-79
2021/10/24 17:00:44;;;;;;;21.63;3.50;;;15.80;99.90;;;;;;6192346;23;1117305;-79
2021/10/24 17:03:10;;;;;;;21.95;5.30;;;15.80;99.90;;;;;;6240923;23;20379;-78
2021/10/24 17:05:57;;;;;;;22.48;3.90;;;15.80;99.90;;;;;;6219056;23;20016;-78
2021/10/24 17:08:24;;;;;;;25.05;10.90;;;15.70;99.90;;;;;;6241580;23;20078;-78
2021/10/24 17:10:51;;;;;;;55.17;28.38;;;15.70;99.90;;;;;;6241413;23;20070;-78
2021/10/24 17:13:18;;;;;;;43.17;26.17;;;15.70;99.90;;;;;;6240956;23;20085;-79
2021/10/24 17:15:45;;;;;;;39.13;19.10;;;15.70;99.90;;;;;;6215103;23;20026;-78
2021/10/24 17:18:16;;;;;;;28.73;15.35;;;15.70;99.90;;;;;;6214937;23;20464;-78
2021/10/24 17:20:43;;;;;;;33.65;10.38;;;15.60;99.90;;;;;;6241487;23;20423;-79
2021/10/24 17:23:10;;;;;;;22.08;6.80;;;15.60;99.90;;;;;;6240945;23;20090;-78
2021/10/24 17:25:38;;;;;;;22.00;6.35;;;15.60;99.90;;;;;;6241185;23;20050;-79
2021/10/24 17:28:06;;;;;;;31.45;4.72;;;15.60;99.90;;;;;;6241706;23;20023;-78
2021/10/24 17:30:33;;;;;;;28.03;5.33;;;15.60;99.90;;;;;;6241606;23;20082;-79
2021/10/24 17:33:00;;;;;;;20.45;4.95;;;15.60;99.90;;;;;;6241641;23;20309;-79
2021/10/24 17:35:29;;;;;;;26.10;5.28;;;15.60;99.90;;;;;;6240312;23;20016;-78
2021/10/24 17:37:56;;;;;;;;;;;15.50;99.90;;;;;;6242126;23;20020;-79
2021/10/24 17:40:23;;;;;;;25.85;5.45;;;15.50;99.90;;;;;;6241398;23;19931;-79
2021/10/24 17:42:49;;;;;;;22.67;6.05;;;15.50;99.90;;;;;;6241603;23;20023;-79
2021/10/24 17:45:16;;;;;;;20.10;6.90;;;15.50;99.90;;;;;;6240550;23;20082;-79
2021/10/24 17:47:43;;;;;;;30.83;6.28;;;15.50;99.90;;;;;;6241602;23;20051;-79
2021/10/24 17:50:11;;;;;;;20.77;4.93;;;15.50;99.90;;;;;;6240728;23;20016;-79
2021/10/24 17:52:37;;;;;;;25.58;4.60;;;15.40;99.90;;;;;;6241486;23;20072;-79
2021/10/24 17:55:04;;;;;;;30.30;5.35;;;15.50;99.90;;;;;;6240916;23;20016;-79
2021/10/24 17:57:31;;;;;;;33.72;7.03;;;15.50;99.90;;;;;;6241437;23;20024;-78
2021/10/24 17:59:58;;;;;;;28.70;6.00;;;15.40;99.90;;;;;;6240786;23;20086;-79
2021/10/24 18:02:25;;;;;;;29.42;4.90;;;15.40;99.90;;;;;;6240959;23;20032;-79
2021/10/24 18:04:53;;;;;;;28.65;5.03;;;15.40;99.90;;;;;;6241379;23;20027;-78
2021/10/24 18:07:24;;;;;;;29.75;5.95;;;15.40;99.90;;;;;;6240043;23;20023;-78
2021/10/24 18:09:51;;;;;;;34.90;5.70;;;15.40;99.90;;;;;;6241406;23;20016;-78
2021/10/24 18:12:19;;;;;;;30.63;8.07;;;15.40;99.90;;;;;;6240210;23;20046;-79
2021/10/24 18:14:47;;;;;;;25.80;6.78;;;15.40;99.90;;;;;;6241325;23;20027;-79
2021/10/24 18:17:15;;;;;;;32.58;7.47;;;15.40;99.90;;;;;;6240945;23;20070;-79
2021/10/24 18:19:42;;;;;;;29.40;7.53;;;15.40;99.90;;;;;;6240872;23;20039;-78
2021/10/24 18:22:09;;;;;;;32.75;7.63;;;15.40;99.90;;;;;;6241315;23;20248;-78
2021/10/24 18:24:39;;;;;;;28.17;9.35;;;15.40;99.90;;;;;;6240824;23;20020;-78
2021/10/24 18:27:07;;;;;;;34.20;7.57;;;15.40;99.90;;;;;;6240683;23;20537;-78
2021/10/24 18:29:34;;;;;;;30.58;5.03;;;15.40;99.90;;;;;;6241353;23;20017;-78
2021/10/24 18:32:01;;;;;;;29.40;8.20;;;15.40;99.90;;;;;;6240846;23;20024;-78
2021/10/24 18:34:28;;;;;;;35.95;10.23;;;15.30;99.90;;;;;;6240713;23;20424;-78
2021/10/24 18:36:55;;;;;;;33.25;7.70;;;15.40;99.90;;;;;;6240866;23;20042;-79
2021/10/24 18:39:22;;;;;;;32.60;8.05;;;15.40;99.90;;;;;;6240354;23;20027;-78
2021/10/24 18:41:50;;;;;;;26.77;5.25;;;15.30;99.90;;;;;;6240804;23;20372;-78
2021/10/24 18:44:18;;;;;;;29.85;6.18;;;15.40;99.90;;;;;;6240392;23;20016;-78
2021/10/24 18:46:45;;;;;;;30.70;11.20;;;15.30;99.90;;;;;;6241001;23;20097;-79
2021/10/24 18:49:12;;;;;;;32.10;12.40;;;15.40;99.90;;;;;;6240480;23;20498;-78
2021/10/24 18:51:39;;;;;;;25.67;5.88;;;15.40;99.90;;;;;;6241228;23;20024;-78
2021/10/24 18:54:06;;;;;;;33.45;13.10;;;15.40;99.90;;;;;;6240214;23;20486;-78
2021/10/24 18:56:35;;;;;;;36.60;13.38;;;15.40;99.90;;;;;;6241156;23;20020;-79
2021/10/24 18:59:02;;;;;;;38.72;10.60;;;15.40;99.90;;;;;;6240953;23;20021;-78
2021/10/24 19:01:29;;;;;;;26.55;7.72;;;15.40;99.90;;;;;;6239497;23;20058;-78
2021/10/24 19:03:56;;;;;;;34.97;6.68;;;15.40;99.90;;;;;;6239827;23;20024;-78
2021/10/24 19:06:23;;;;;;;33.60;6.95;;;15.30;99.90;;;;;;6240323;23;20020;-79
2021/10/24 19:08:50;;;;;;;30.70;8.02;;;15.40;99.90;;;;;;6214504;23;20024;-79
2021/10/24 19:11:19;;;;;;;45.30;9.77;;;15.30;99.90;;;;;;6239849;23;20024;-79